Time;durP1;ratioP1;P1;durP2;ratioP2;P2;SDS_P1;SDS_P2;PMS_P1;PMS_P2;Temp;Humidity;BMP_temperature;BMP_pressure;BME280_temperature;BME280_humidity;BME280_pressure;Samples;Min_cycle;Max_cycle;Signal;HPM_P1;HPM_P2
2023/10/05 20:54:33;;;;;;;11.02;5.40;;;;;;;;;;7279692;19;20065;-75
2023/10/05 22:02:32;;;;;;;11.18;5.03;;;;;;;;;;7290635;19;20010;-81
2023/10/05 22:04:57;;;;;;;11.10;4.85;;;;;;;;;;7351283;19;20007;-77
2023/10/05 22:07:22;;;;;;;11.43;4.90;;;;;;;;;;7354337;19;20026;-76
2023/10/05 22:09:47;;;;;;;10.55;4.90;;;;;;;;;;7355245;19;19994;-80
2023/10/05 22:12:13;;;;;;;9.77;4.53;;;;;;;;;;7358731;19;20002;-80
2023/10/05 22:14:39;;;;;;;12.25;5.13;;;;;;;;;;7364905;19;20358;-78
2023/10/05 22:17:04;;;;;;;12.15;5.28;;;;;;;;;;7354119;19;20791;-77
2023/10/05 22:19:29;;;;;;;11.65;5.22;;;;;;;;;;7351161;19;19995;-77
2023/10/05 22:21:55;;;;;;;10.03;4.60;;;;;;;;;;7360272;19;20018;-78
2023/10/05 22:24:20;;;;;;;10.25;5.20;;;;;;;;;;7365264;19;20260;-76
2023/10/05 22:26:46;;;;;;;10.00;5.00;;;;;;;;;;7372394;19;20014;-77
2023/10/05 22:29:12;;;;;;;8.63;4.13;;;;;;;;;;7361540;19;20451;-77
2023/10/05 22:31:37;;;;;;;11.03;5.07;;;;;;;;;;7365388;19;20325;-78
2023/10/05 22:34:02;;;;;;;14.03;5.13;;;;;;;;;;7359872;19;20264;-81
2023/10/05 22:36:27;;;;;;;10.53;4.80;;;;;;;;;;7372746;19;20754;-78
2023/10/05 22:38:52;;;;;;;11.65;5.38;;;;;;;;;;7364747;19;20227;-79
2023/10/05 22:41:17;;;;;;;8.33;4.70;;;;;;;;;;7364273;19;20243;-81
2023/10/05 22:43:43;;;;;;;8.98;4.43;;;;;;;;;;7365433;19;20783;-78
2023/10/05 22:46:16;;;;;;;11.45;5.53;;;;;;;;;;7362820;19;20007;-78
2023/10/05 22:48:42;;;;;;;10.27;5.25;;;;;;;;;;7369997;19;20003;-78
2023/10/05 22:51:13;;;;;;;15.70;5.78;;;;;;;;;;7367766;19;20465;-77
2023/10/05 22:53:38;;;;;;;12.65;5.10;;;;;;;;;;7369865;19;20001;-79
2023/10/05 22:56:03;;;;;;;10.73;5.07;;;;;;;;;;7364658;19;19999;-77
2023/10/05 22:58:28;;;;;;;9.90;5.10;;;;;;;;;;7357995;19;20003;-77
2023/10/05 23:00:54;;;;;;;11.80;5.18;;;;;;;;;;7361474;19;19998;-80
2023/10/05 23:03:19;;;;;;;13.43;5.00;;;;;;;;;;7365967;19;20574;-76
2023/10/05 23:05:44;;;;;;;11.23;5.18;;;;;;;;;;7366647;19;20233;-79
2023/10/05 23:08:11;;;;;;;14.50;5.15;;;;;;;;;;7362473;19;20015;-78
2023/10/05 23:10:38;;;;;;;11.57;5.72;;;;;;;;;;7371465;19;20066;-79
2023/10/05 23:13:03;;;;;;;10.45;4.75;;;;;;;;;;7362052;19;20037;-77
2023/10/05 23:15:28;;;;;;;10.37;4.60;;;;;;;;;;7361726;19;20101;-78
2023/10/05 23:17:56;;;;;;;10.73;5.05;;;;;;;;;;7367917;19;20235;-81
2023/10/05 23:20:24;;;;;;;12.10;5.63;;;;;;;;;;7364857;19;20007;-78
2023/10/05 23:22:50;;;;;;;15.35;5.57;;;;;;;;;;7367639;19;20006;-78
2023/10/05 23:25:18;;;;;;;14.52;6.38;;;;;;;;;;7359071;19;20012;-76
2023/10/05 23:27:45;;;;;;;14.73;7.03;;;;;;;;;;7366950;19;19998;-80
2023/10/05 23:30:11;;;;;;;16.08;6.45;;;;;;;;;;7362252;19;20596;-78
2023/10/05 23:32:36;;;;;;;14.05;6.28;;;;;;;;;;7368438;19;20010;-77
2023/10/05 23:35:01;;;;;;;14.73;6.63;;;;;;;;;;7364444;19;20078;-78
2023/10/05 23:37:28;;;;;;;18.47;7.00;;;;;;;;;;7367739;19;20762;-77
2023/10/05 23:39:53;;;;;;;14.65;5.82;;;;;;;;;;7370176;19;20315;-81
2023/10/05 23:42:18;;;;;;;15.07;6.95;;;;;;;;;;7369140;19;20482;-78
2023/10/05 23:44:47;;;;;;;13.60;6.13;;;;;;;;;;7360993;19;20466;-81
2023/10/05 23:47:19;;;;;;;13.57;5.80;;;;;;;;;;7363771;19;20018;-78
2023/10/05 23:49:44;;;;;;;12.63;5.85;;;;;;;;;;7369591;19;20035;-76
2023/10/05 23:52:09;;;;;;;13.00;5.60;;;;;;;;;;7364603;19;19990;-81
2023/10/05 23:54:34;;;;;;;10.65;5.70;;;;;;;;;;7365571;19;20859;-79
2023/10/05 23:57:10;;;;;;;11.18;5.65;;;;;;;;;;7366649;19;20002;-81
2023/10/05 23:59:35;;;;;;;11.80;5.57;;;;;;;;;;7371324;19;20741;-77
